createdAt,value
2023-03-30T00:06:26.939Z,100.00
2023-03-30T00:16:29.280Z,100.00
2023-03-30T00:26:31.859Z,100.00
2023-03-30T00:36:37.614Z,100.00
2023-03-30T00:46:39.940Z,97.51
2023-03-30T00:56:42.378Z,99.68
2023-03-30T01:06:49.381Z,100.00
2023-03-30T01:17:13.871Z,100.00
2023-03-30T01:27:50.191Z,100.00
2023-03-30T01:37:55.071Z,100.00
2023-03-30T01:48:31.551Z,100.00
2023-03-30T01:58:40.171Z,100.00
2023-03-30T02:08:46.622Z,100.00
2023-03-30T02:18:49.031Z,100.00
2023-03-30T02:28:52.492Z,100.00
2023-03-30T02:39:16.257Z,100.00
2023-03-30T02:49:42.334Z,100.00
2023-03-30T02:59:59.121Z,100.00
2023-03-30T03:10:01.752Z,100.00
2023-03-30T03:20:05.297Z,100.00
2023-03-30T03:30:08.390Z,100.00
2023-03-30T03:40:12.214Z,100.00
2023-03-30T03:50:14.709Z,100.00
2023-03-30T04:00:17.565Z,100.00
2023-03-30T04:10:21.740Z,100.00
2023-03-30T04:20:26.082Z,100.00
2023-03-30T04:30:30.877Z,100.00
2023-03-30T04:40:34.406Z,100.00
2023-03-30T04:50:36.944Z,100.00
2023-03-30T05:00:39.813Z,100.00
2023-03-30T05:10:42.388Z,100.00
2023-03-30T05:20:44.863Z,100.00
2023-03-30T05:30:47.406Z,100.00
2023-03-30T05:40:54.090Z,100.00
2023-03-30T05:50:57.503Z,100.00
2023-03-30T06:01:01.022Z,100.00
2023-03-30T06:11:05.025Z,100.00
2023-03-30T06:21:08.655Z,100.00
2023-03-30T06:31:12.568Z,100.00
2023-03-30T06:41:15.797Z,100.00
2023-03-30T06:51:19.615Z,100.00
2023-03-30T07:01:22.471Z,100.00
2023-03-30T07:11:25.279Z,96.46
2023-03-30T07:21:27.949Z,93.70
2023-03-30T07:31:30.826Z,90.08
2023-03-30T07:41:33.363Z,88.71
2023-03-30T07:51:36.048Z,88.60
2023-03-30T08:01:39.225Z,83.42
2023-03-30T08:11:42.333Z,83.06
2023-03-30T08:21:44.733Z,74.25
2023-03-30T08:31:48.014Z,79.73
2023-03-30T08:42:06.469Z,77.69
2023-03-30T08:52:19.945Z,100.00
2023-03-30T09:02:36.757Z,100.00
2023-03-30T09:13:00.991Z,100.00
2023-03-30T09:23:04.420Z,100.00
2023-03-30T09:33:39.287Z,100.00
2023-03-30T09:43:46.564Z,100.00
2023-03-30T09:54:00.593Z,100.00
2023-03-30T10:04:13.011Z,100.00
2023-03-30T10:14:38.183Z,100.00
2023-03-30T10:24:50.288Z,100.00
2023-03-30T10:35:00.563Z,100.00
2023-03-30T10:45:07.543Z,100.00
2023-03-30T10:55:18.929Z,100.00
2023-03-30T11:05:29.222Z,100.00
2023-03-30T11:16:05.508Z,100.00
2023-03-30T11:26:12.861Z,100.00
2023-03-30T11:36:36.558Z,100.00
2023-03-30T11:46:53.440Z,100.00
2023-03-30T11:57:17.693Z,100.00
2023-03-30T12:07:23.004Z,100.00
2023-03-30T12:17:42.716Z,100.00
2023-03-30T12:27:59.151Z,100.00
2023-03-30T12:38:06.339Z,100.00
2023-03-30T12:48:47.162Z,91.70
2023-03-30T12:59:05.934Z,76.11
2023-03-30T13:09:08.538Z,84.46
2023-03-30T13:19:32.575Z,91.82
2023-03-30T13:29:35.205Z,76.78
2023-03-30T13:39:50.860Z,69.82
2023-03-30T13:50:06.856Z,66.55
2023-03-30T14:10:47.059Z,57.05
2023-03-30T14:20:56.897Z,46.54
2023-03-30T14:31:11.903Z,46.74
2023-03-30T14:41:24.285Z,45.36
2023-03-30T14:51:41.178Z,43.73
2023-03-30T15:01:44.628Z,42.58
2023-03-30T15:11:53.972Z,40.59
2023-03-30T15:22:03.498Z,42.57
2023-03-30T15:32:08.066Z,41.93
2023-03-30T15:42:10.899Z,42.24
2023-03-30T15:52:20.352Z,44.37
2023-03-30T16:02:36.502Z,47.17
2023-03-30T16:12:44.301Z,49.60
2023-03-30T16:22:47.987Z,49.93
2023-03-30T16:32:50.637Z,49.39
2023-03-30T16:42:53.670Z,47.19
2023-03-30T16:52:56.304Z,47.48
2023-03-30T17:02:58.989Z,52.76
2023-03-30T17:13:02.023Z,56.51
2023-03-30T17:23:05.582Z,50.29
2023-03-30T17:33:13.016Z,50.42
2023-03-30T17:43:16.040Z,51.53
2023-03-30T17:53:20.653Z,52.72
2023-03-30T18:03:29.744Z,57.94
2023-03-30T18:13:32.817Z,59.74
2023-03-30T18:23:36.381Z,64.35
2023-03-30T18:33:39.714Z,70.58
2023-03-30T18:43:42.534Z,77.75
2023-03-30T18:53:44.994Z,80.16
2023-03-30T19:03:47.835Z,80.83
2023-03-30T19:13:50.556Z,85.31
2023-03-30T19:23:53.383Z,88.59
2023-03-30T19:33:56.088Z,89.82
2023-03-30T19:43:58.930Z,93.43
2023-03-30T19:54:01.849Z,93.76
2023-03-30T20:04:05.381Z,94.77
2023-03-30T20:14:09.266Z,97.87
2023-03-30T20:24:12.262Z,100.00
2023-03-30T20:34:15.805Z,100.00
2023-03-30T20:44:18.532Z,100.00
2023-03-30T20:54:21.457Z,100.00
2023-03-30T21:04:24.114Z,100.00
2023-03-30T21:14:26.993Z,100.00
2023-03-30T21:24:29.871Z,100.00
2023-03-30T21:34:32.272Z,100.00
2023-03-30T21:44:35.863Z,100.00
2023-03-30T21:54:38.455Z,100.00
2023-03-30T22:04:44.043Z,100.00
2023-03-30T22:14:46.454Z,100.00
2023-03-30T22:24:48.861Z,100.00
2023-03-30T22:34:51.820Z,98.99
2023-03-30T22:44:54.146Z,99.23
2023-03-30T22:54:56.653Z,98.05
2023-03-30T23:04:59.259Z,100.00
2023-03-30T23:15:01.787Z,100.00
2023-03-30T23:25:05.679Z,100.00
2023-03-30T23:35:08.657Z,100.00
2023-03-30T23:45:11.301Z,100.00
2023-03-30T23:55:13.829Z,100.00
